createdAt,value
2023-10-29T00:02:53.787Z,3.50
2023-10-29T00:05:58.297Z,3.33
2023-10-29T00:09:01.045Z,3.90
2023-10-29T00:12:03.931Z,3.63
2023-10-29T00:15:07.815Z,3.40
2023-10-29T00:18:13.889Z,3.83
2023-10-29T00:21:18.057Z,3.45
2023-10-29T00:24:21.062Z,3.40
2023-10-29T00:27:23.786Z,3.45
2023-10-29T00:30:26.680Z,3.10
2023-10-29T00:33:29.394Z,3.70
2023-10-29T00:36:33.660Z,3.60
2023-10-29T00:39:36.540Z,3.50
2023-10-29T00:42:39.337Z,3.40
2023-10-29T00:45:43.059Z,3.53
2023-10-29T00:48:46.520Z,3.60
2023-10-29T00:51:51.809Z,3.28
2023-10-29T00:54:54.791Z,3.30
2023-10-29T00:57:57.732Z,3.45
2023-10-29T01:01:00.470Z,3.57
2023-10-29T01:04:03.792Z,3.40
2023-10-29T01:07:08.042Z,2.97
2023-10-29T01:10:12.323Z,3.47
2023-10-29T01:13:15.111Z,2.97
2023-10-29T01:16:18.074Z,3.13
2023-10-29T01:19:21.023Z,3.17
2023-10-29T01:22:25.475Z,2.45
2023-10-29T01:25:28.280Z,2.80
2023-10-29T01:28:31.177Z,2.60
2023-10-29T01:31:34.096Z,3.10
2023-10-29T01:34:37.206Z,2.33
2023-10-29T01:37:41.314Z,2.42
2023-10-29T01:40:45.150Z,2.70
2023-10-29T01:43:47.866Z,2.38
2023-10-29T01:46:51.042Z,1.97
2023-10-29T01:49:53.789Z,2.37
2023-10-29T01:52:58.374Z,2.60
2023-10-29T01:56:01.215Z,2.20
2023-10-29T01:59:04.422Z,2.10
2023-10-29T02:02:07.204Z,2.40
2023-10-29T02:05:10.371Z,2.60
2023-10-29T02:08:14.440Z,2.28
2023-10-29T02:11:17.267Z,2.20
2023-10-29T02:14:20.012Z,2.60
2023-10-29T02:17:26.200Z,2.10
2023-10-29T02:20:29.256Z,1.83
2023-10-29T02:23:33.658Z,2.08
2023-10-29T02:26:38.096Z,2.10
2023-10-29T02:29:41.053Z,2.15
2023-10-29T02:32:43.817Z,2.07
2023-10-29T02:35:47.623Z,2.23
2023-10-29T02:38:51.819Z,2.20
2023-10-29T02:41:54.893Z,2.42
2023-10-29T02:44:59.876Z,2.00
2023-10-29T02:48:02.887Z,1.90
2023-10-29T02:51:05.920Z,2.23
2023-10-29T02:54:10.158Z,2.28
2023-10-29T02:57:14.712Z,2.50
2023-10-29T03:00:18.267Z,2.20
2023-10-29T03:03:21.409Z,2.03
2023-10-29T03:06:24.361Z,2.23
2023-10-29T03:09:28.693Z,2.92
2023-10-29T03:12:31.632Z,2.30
2023-10-29T03:15:34.382Z,2.20
2023-10-29T03:18:37.552Z,2.27
2023-10-29T03:21:40.485Z,2.30
2023-10-29T03:24:44.587Z,2.33
2023-10-29T03:27:47.480Z,2.40
2023-10-29T03:30:50.233Z,2.10
2023-10-29T03:33:53.107Z,2.30
2023-10-29T03:36:55.833Z,2.47
2023-10-29T03:40:01.155Z,2.05
2023-10-29T03:43:03.869Z,2.42
2023-10-29T03:46:12.169Z,2.47
2023-10-29T03:49:17.198Z,2.90
2023-10-29T03:52:20.866Z,2.20
2023-10-29T03:55:25.449Z,2.03
2023-10-29T03:58:28.194Z,1.85
2023-10-29T04:01:31.260Z,2.03
2023-10-29T04:04:34.861Z,2.10
2023-10-29T04:07:37.807Z,1.97
2023-10-29T04:10:42.042Z,2.20
2023-10-29T04:13:45.675Z,2.20
2023-10-29T04:16:48.404Z,2.30
2023-10-29T04:19:51.304Z,2.10
2023-10-29T04:22:54.034Z,2.00
2023-10-29T04:25:58.247Z,2.50
2023-10-29T04:29:01.158Z,2.05
2023-10-29T04:32:04.257Z,2.38
2023-10-29T04:35:07.785Z,2.13
2023-10-29T04:38:10.651Z,2.60
2023-10-29T04:41:14.781Z,2.28
2023-10-29T04:44:17.552Z,2.35
2023-10-29T04:47:20.323Z,2.35
2023-10-29T04:50:23.152Z,2.40
2023-10-29T04:53:25.852Z,2.10
2023-10-29T04:56:30.099Z,2.03
2023-10-29T04:59:33.185Z,1.83
2023-10-29T05:02:36.942Z,2.15
2023-10-29T05:05:39.807Z,2.53
2023-10-29T05:08:42.536Z,2.63
2023-10-29T05:11:46.731Z,2.20
2023-10-29T05:14:52.156Z,2.63
2023-10-29T05:17:55.018Z,2.28
2023-10-29T05:20:59.129Z,2.15
2023-10-29T05:24:03.967Z,2.43
2023-10-29T05:27:08.198Z,2.15
2023-10-29T05:30:11.963Z,2.10
2023-10-29T05:33:14.789Z,2.20
2023-10-29T05:36:17.532Z,2.10
2023-10-29T05:39:20.268Z,1.97
2023-10-29T05:42:24.356Z,2.13
2023-10-29T05:45:27.089Z,2.35
2023-10-29T05:48:29.985Z,2.22
2023-10-29T05:51:32.967Z,2.10
2023-10-29T05:54:35.697Z,2.37
2023-10-29T05:57:40.193Z,1.95
2023-10-29T06:00:43.017Z,2.30
2023-10-29T06:03:46.010Z,2.42
2023-10-29T06:06:48.865Z,2.83
2023-10-29T06:09:52.169Z,2.03
2023-10-29T06:12:56.464Z,2.47
2023-10-29T06:15:59.305Z,2.00
2023-10-29T06:19:03.739Z,1.80
2023-10-29T06:22:07.057Z,2.35
2023-10-29T06:25:11.146Z,2.07
2023-10-29T06:28:15.219Z,2.00
2023-10-29T06:31:17.946Z,2.10
2023-10-29T06:34:20.689Z,2.28
2023-10-29T06:37:23.696Z,2.05
2023-10-29T06:40:26.828Z,2.47
2023-10-29T06:43:30.984Z,1.98
2023-10-29T06:46:33.712Z,1.80
2023-10-29T06:49:36.450Z,2.20
2023-10-29T06:52:39.376Z,2.00
2023-10-29T06:55:43.326Z,1.80
2023-10-29T06:58:47.529Z,1.90
2023-10-29T07:01:51.434Z,2.13
2023-10-29T07:04:54.263Z,1.80
2023-10-29T07:07:56.998Z,1.80
2023-10-29T07:10:59.774Z,1.80
2023-10-29T07:14:03.894Z,2.00
2023-10-29T07:17:07.265Z,1.80
2023-10-29T07:20:11.558Z,1.90
2023-10-29T07:23:14.748Z,1.90
2023-10-29T07:26:17.445Z,1.93
2023-10-29T07:29:21.660Z,1.67
2023-10-29T07:32:24.628Z,1.73
2023-10-29T07:35:27.520Z,1.73
2023-10-29T07:38:30.281Z,1.85
2023-10-29T07:41:33.163Z,1.70
2023-10-29T07:44:37.556Z,1.88
2023-10-29T07:47:40.770Z,1.70
2023-10-29T07:50:51.208Z,1.88
2023-10-29T07:53:54.914Z,1.80
2023-10-29T07:56:57.686Z,1.73
2023-10-29T08:00:01.990Z,1.95
2023-10-29T08:03:04.908Z,2.05
2023-10-29T08:06:07.975Z,1.70
2023-10-29T08:09:10.865Z,2.00
2023-10-29T08:12:13.618Z,1.80
2023-10-29T08:15:17.931Z,1.88
2023-10-29T08:18:20.850Z,2.53
2023-10-29T08:21:23.676Z,2.40
2023-10-29T08:24:34.847Z,2.32
2023-10-29T08:27:37.561Z,2.30
2023-10-29T08:30:41.779Z,1.80
2023-10-29T08:33:45.299Z,2.17
2023-10-29T08:36:48.201Z,2.67
2023-10-29T08:39:51.338Z,2.40
2023-10-29T08:42:54.085Z,2.20
2023-10-29T08:45:58.655Z,2.00
2023-10-29T08:49:01.521Z,1.85
2023-10-29T08:52:04.365Z,2.28
2023-10-29T08:55:08.014Z,2.00
2023-10-29T08:58:12.737Z,2.00
2023-10-29T09:01:18.714Z,1.80
2023-10-29T09:04:21.687Z,1.88
2023-10-29T09:07:25.031Z,2.40
2023-10-29T09:10:27.990Z,1.67
2023-10-29T09:13:31.256Z,1.98
2023-10-29T09:16:35.598Z,1.70
2023-10-29T09:19:38.694Z,1.83
2023-10-29T09:22:41.432Z,1.60
2023-10-29T09:25:45.781Z,1.70
2023-10-29T09:28:49.099Z,1.60
2023-10-29T09:31:53.418Z,1.40
2023-10-29T09:34:56.468Z,1.50
2023-10-29T09:37:59.856Z,1.17
2023-10-29T09:41:03.095Z,1.58
2023-10-29T09:44:09.447Z,1.50
2023-10-29T09:47:18.399Z,1.40
2023-10-29T09:50:22.806Z,1.40
2023-10-29T09:53:26.240Z,1.30
2023-10-29T09:56:31.029Z,1.55
2023-10-29T09:59:36.107Z,1.50
2023-10-29T10:02:53.600Z,1.45
2023-10-29T10:05:56.961Z,1.40
2023-10-29T10:09:00.117Z,1.57
2023-10-29T10:12:07.309Z,1.25
2023-10-29T10:15:12.290Z,1.10
2023-10-29T10:18:16.695Z,1.23
2023-10-29T10:21:21.528Z,1.40
2023-10-29T10:24:38.416Z,1.10
2023-10-29T10:27:50.393Z,1.33
2023-10-29T10:30:53.459Z,1.50
2023-10-29T10:34:14.990Z,1.50
2023-10-29T10:37:18.054Z,1.40
2023-10-29T10:40:24.015Z,1.53
2023-10-29T10:43:27.783Z,1.23
2023-10-29T10:46:35.138Z,1.20
2023-10-29T10:49:44.280Z,1.30
2023-10-29T10:52:47.542Z,1.40
2023-10-29T10:56:01.511Z,1.43
2023-10-29T10:59:07.055Z,1.33
2023-10-29T11:02:14.160Z,1.60
2023-10-29T11:05:19.061Z,1.40
2023-10-29T11:08:25.114Z,1.60
2023-10-29T11:11:38.747Z,1.40
2023-10-29T11:15:01.775Z,1.40
2023-10-29T11:18:04.914Z,1.42
2023-10-29T11:21:09.505Z,1.23
2023-10-29T11:24:19.434Z,1.40
2023-10-29T11:27:36.728Z,1.30
2023-10-29T11:30:39.464Z,1.50
2023-10-29T11:33:43.784Z,1.50
2023-10-29T11:36:47.962Z,1.10
2023-10-29T11:39:50.865Z,1.40
2023-10-29T11:42:54.780Z,1.30
2023-10-29T11:45:59.847Z,1.40
2023-10-29T11:49:06.585Z,1.25
2023-10-29T11:52:11.163Z,1.35
2023-10-29T11:55:14.777Z,1.70
2023-10-29T11:58:21.271Z,1.40
2023-10-29T12:01:24.117Z,1.65
2023-10-29T12:04:30.776Z,1.50
2023-10-29T12:07:35.247Z,1.67
2023-10-29T12:10:46.906Z,0.93
2023-10-29T12:13:49.842Z,1.40
2023-10-29T12:16:52.841Z,1.30
2023-10-29T12:19:55.710Z,1.27
2023-10-29T12:23:04.211Z,1.40
2023-10-29T12:26:10.651Z,1.47
2023-10-29T12:29:14.418Z,1.40
2023-10-29T12:32:18.373Z,1.58
2023-10-29T12:35:36.715Z,1.58
2023-10-29T12:38:42.558Z,1.20
2023-10-29T12:41:53.310Z,1.30
2023-10-29T12:44:56.897Z,1.30
2023-10-29T12:48:10.911Z,1.20
2023-10-29T12:51:13.827Z,1.17
2023-10-29T12:54:21.720Z,1.27
2023-10-29T12:57:25.075Z,1.63
2023-10-29T13:00:27.996Z,1.20
2023-10-29T13:03:31.283Z,1.30
2023-10-29T13:06:34.346Z,1.42
2023-10-29T13:09:38.495Z,1.30
2023-10-29T13:12:42.925Z,1.40
2023-10-29T13:15:46.214Z,1.40
2023-10-29T13:18:49.152Z,1.48
2023-10-29T13:21:53.549Z,1.30
2023-10-29T13:24:59.988Z,1.35
2023-10-29T13:28:02.832Z,1.20
2023-10-29T13:31:05.624Z,1.30
2023-10-29T13:34:09.873Z,1.20
2023-10-29T13:37:13.229Z,1.50
2023-10-29T13:40:17.528Z,1.20
2023-10-29T13:43:20.420Z,1.60
2023-10-29T13:46:24.045Z,1.30
2023-10-29T13:49:27.061Z,1.10
2023-10-29T13:52:32.357Z,1.40
2023-10-29T13:55:36.578Z,1.40
2023-10-29T13:58:39.721Z,1.38
2023-10-29T14:01:43.351Z,1.73
2023-10-29T14:04:46.142Z,1.40
2023-10-29T14:07:49.090Z,1.52
2023-10-29T14:10:53.185Z,1.20
2023-10-29T14:13:57.276Z,1.52
2023-10-29T14:17:02.958Z,1.30
2023-10-29T14:20:07.910Z,1.10
2023-10-29T14:23:10.828Z,1.30
2023-10-29T14:26:14.909Z,1.30
2023-10-29T14:29:17.764Z,1.40
2023-10-29T14:32:22.463Z,1.20
2023-10-29T14:35:25.349Z,1.37
2023-10-29T14:38:28.503Z,1.27
2023-10-29T14:41:32.719Z,0.77
2023-10-29T14:44:35.427Z,0.90
2023-10-29T14:47:38.196Z,1.20
2023-10-29T14:50:40.922Z,1.00
2023-10-29T14:53:43.761Z,1.05
2023-10-29T14:56:47.989Z,0.82
2023-10-29T14:59:50.856Z,1.30
2023-10-29T15:02:53.715Z,1.20
2023-10-29T15:05:57.228Z,1.13
2023-10-29T15:09:00.519Z,1.20
2023-10-29T15:12:05.286Z,0.90
2023-10-29T15:15:22.353Z,1.20
2023-10-29T15:18:33.220Z,4.00
2023-10-29T15:21:36.118Z,1.80
2023-10-29T15:24:38.932Z,7.32
2023-10-29T15:27:43.764Z,3.60
2023-10-29T15:30:46.662Z,6.28
2023-10-29T15:33:49.418Z,5.57
2023-10-29T15:36:52.341Z,3.73
2023-10-29T15:39:57.699Z,2.03
2023-10-29T15:43:01.800Z,2.30
2023-10-29T15:46:05.831Z,2.63
2023-10-29T15:49:08.610Z,1.90
2023-10-29T15:52:11.520Z,2.00
2023-10-29T15:55:15.148Z,1.80
2023-10-29T15:58:20.312Z,1.70
2023-10-29T16:01:23.267Z,1.40
2023-10-29T16:04:26.198Z,1.50
2023-10-29T16:07:28.970Z,1.30
2023-10-29T16:10:31.743Z,1.52
2023-10-29T16:13:36.469Z,2.13
2023-10-29T16:16:39.191Z,2.08
2023-10-29T16:19:42.010Z,2.20
2023-10-29T16:22:44.751Z,1.60
2023-10-29T16:25:47.612Z,1.88
2023-10-29T16:28:51.778Z,1.52
2023-10-29T16:31:54.571Z,1.90
2023-10-29T16:34:57.462Z,1.57
2023-10-29T16:38:00.218Z,1.50
2023-10-29T16:41:05.541Z,1.30
2023-10-29T16:44:09.686Z,1.38
2023-10-29T16:47:12.548Z,1.42
2023-10-29T16:50:15.659Z,2.00
2023-10-29T16:53:18.453Z,2.00
2023-10-29T16:56:21.408Z,1.50
2023-10-29T16:59:25.640Z,1.60
2023-10-29T17:02:28.605Z,1.42
2023-10-29T17:05:31.524Z,1.53
2023-10-29T17:08:34.511Z,1.70
2023-10-29T17:11:38.008Z,1.40
2023-10-29T17:14:42.147Z,1.50
2023-10-29T17:17:44.967Z,2.63
2023-10-29T17:20:50.622Z,2.27
2023-10-29T17:23:53.497Z,2.40
2023-10-29T17:26:56.443Z,2.45
2023-10-29T17:30:02.118Z,1.95
2023-10-29T17:33:05.348Z,2.03
2023-10-29T17:36:10.728Z,2.22
2023-10-29T17:42:18.989Z,3.20
2023-10-29T17:45:23.267Z,2.50
2023-10-29T17:51:29.167Z,3.17
2023-10-29T17:54:33.124Z,3.70
2023-10-29T17:57:36.587Z,3.75
2023-10-29T18:00:41.223Z,2.47
2023-10-29T18:03:45.613Z,3.33
2023-10-29T18:06:51.232Z,4.60
2023-10-29T18:09:54.104Z,2.70
2023-10-29T18:12:57.029Z,2.67
2023-10-29T18:16:01.617Z,2.40
2023-10-29T18:19:05.700Z,1.97
2023-10-29T18:22:08.518Z,2.05
2023-10-29T18:25:11.498Z,1.83
2023-10-29T18:28:14.239Z,1.58
2023-10-29T18:31:18.361Z,1.65
2023-10-29T18:34:21.224Z,1.50
2023-10-29T18:37:24.009Z,1.40
2023-10-29T18:40:27.962Z,1.50
2023-10-29T18:43:30.693Z,1.25
2023-10-29T18:46:34.806Z,1.50
2023-10-29T18:49:37.588Z,1.50
2023-10-29T18:52:40.362Z,1.40
2023-10-29T18:55:44.082Z,2.05
2023-10-29T18:58:46.850Z,1.80
2023-10-29T19:01:51.711Z,1.77
2023-10-29T19:04:54.555Z,1.20
2023-10-29T19:07:57.314Z,1.63
2023-10-29T19:11:02.020Z,1.48
2023-10-29T19:14:05.331Z,1.58
2023-10-29T19:17:10.136Z,1.40
2023-10-29T19:20:13.932Z,1.83
2023-10-29T19:23:16.674Z,1.45
2023-10-29T19:26:20.029Z,1.55
2023-10-29T19:29:24.561Z,1.40
2023-10-29T19:32:28.697Z,1.60
2023-10-29T19:35:33.142Z,1.57
2023-10-29T19:38:43.190Z,1.40
2023-10-29T19:41:46.658Z,1.30
2023-10-29T19:44:51.849Z,1.38
2023-10-29T19:47:56.353Z,1.50
2023-10-29T19:51:00.403Z,1.13
2023-10-29T19:54:03.337Z,1.13
2023-10-29T19:57:06.689Z,1.40
2023-10-29T20:00:10.455Z,1.17
2023-10-29T20:03:14.834Z,1.10
2023-10-29T20:06:18.314Z,0.90
2023-10-29T20:09:21.158Z,1.00
2023-10-29T20:12:24.019Z,1.20
2023-10-29T20:15:26.860Z,1.00
2023-10-29T20:18:31.633Z,1.00
2023-10-29T20:21:34.468Z,1.00
2023-10-29T20:24:37.473Z,0.93
2023-10-29T20:27:42.438Z,1.17
2023-10-29T20:30:47.073Z,0.82
2023-10-29T20:33:52.164Z,1.23
2023-10-29T20:36:55.137Z,0.80
2023-10-29T20:39:58.050Z,1.00
2023-10-29T20:43:00.798Z,1.10
2023-10-29T20:46:04.841Z,0.80
2023-10-29T20:49:09.202Z,0.88
2023-10-29T20:52:12.076Z,0.73
2023-10-29T20:55:15.017Z,1.00
2023-10-29T20:58:17.780Z,0.97
2023-10-29T21:01:20.733Z,1.20
2023-10-29T21:04:25.384Z,1.00
2023-10-29T21:07:28.941Z,0.88
2023-10-29T21:10:32.068Z,0.70
2023-10-29T21:13:34.923Z,0.70
2023-10-29T21:16:37.827Z,0.90
2023-10-29T21:19:41.960Z,0.68
2023-10-29T21:22:44.887Z,0.90
2023-10-29T21:25:47.909Z,0.70
2023-10-29T21:28:50.839Z,0.90
2023-10-29T21:31:53.788Z,1.00
2023-10-29T21:34:57.900Z,0.90
2023-10-29T21:38:01.662Z,0.93
2023-10-29T21:41:05.587Z,1.05
2023-10-29T21:44:08.541Z,0.80
2023-10-29T21:47:11.318Z,0.90
2023-10-29T21:50:16.763Z,0.90
2023-10-29T21:53:19.647Z,0.90
2023-10-29T21:56:22.367Z,0.80
2023-10-29T21:59:25.252Z,0.90
2023-10-29T22:02:28.341Z,0.90
2023-10-29T22:05:33.897Z,1.10
2023-10-29T22:08:37.156Z,0.90
2023-10-29T22:11:39.880Z,0.95
2023-10-29T22:14:42.863Z,0.87
2023-10-29T22:17:45.762Z,0.77
2023-10-29T22:20:49.968Z,0.60
2023-10-29T22:23:55.646Z,0.98
2023-10-29T22:26:58.431Z,0.60
2023-10-29T22:30:01.317Z,1.10
2023-10-29T22:33:04.271Z,0.90
2023-10-29T22:36:09.143Z,0.90
2023-10-29T22:39:12.933Z,0.70
2023-10-29T22:42:15.719Z,0.80
2023-10-29T22:45:18.667Z,0.80
2023-10-29T22:48:21.783Z,0.80
2023-10-29T22:51:26.044Z,0.70
2023-10-29T22:54:28.997Z,0.90
2023-10-29T22:57:31.856Z,0.73
2023-10-29T23:00:35.178Z,1.00
2023-10-29T23:03:38.528Z,0.90
2023-10-29T23:06:42.738Z,0.80
2023-10-29T23:09:45.659Z,0.80
2023-10-29T23:12:51.873Z,1.23
2023-10-29T23:15:56.670Z,1.00
2023-10-29T23:18:59.766Z,0.90
2023-10-29T23:22:04.711Z,0.88
2023-10-29T23:25:10.372Z,1.10
2023-10-29T23:28:23.023Z,1.00
2023-10-29T23:31:36.361Z,1.00
2023-10-29T23:34:39.321Z,0.90
2023-10-29T23:37:43.459Z,0.98
2023-10-29T23:40:46.366Z,0.93
2023-10-29T23:43:49.066Z,0.93
2023-10-29T23:46:51.946Z,0.80
2023-10-29T23:49:55.168Z,1.00
2023-10-29T23:52:59.216Z,0.80
2023-10-29T23:56:02.088Z,0.85
2023-10-29T23:59:05.234Z,0.90
